sensor_id;sensor_type;location;lat;lon;timestamp;pressure;altitude;pressure_sealevel;temperature;humidity
17649;BME280;8943;51.110;-4.158;2024-01-15T00:40:28;100821.88;;;10.28;48.81
17649;BME280;8943;51.110;-4.158;2024-01-15T00:42:57;100823.34;;;10.32;49.00
17649;BME280;8943;51.110;-4.158;2024-01-15T00:45:55;100817.81;;;10.35;48.58
17649;BME280;8943;51.110;-4.158;2024-01-15T00:48:40;100818.03;;;10.32;48.94
17649;BME280;8943;51.110;-4.158;2024-01-15T00:51:11;100811.72;;;10.33;48.82
17649;BME280;8943;51.110;-4.158;2024-01-15T00:53:45;100811.72;;;10.33;48.93
17649;BME280;8943;51.110;-4.158;2024-01-15T00:56:23;100808.22;;;10.32;49.04
17649;BME280;8943;51.110;-4.158;2024-01-15T00:59:07;100812.81;;;10.30;49.21
17649;BME280;8943;51.110;-4.158;2024-01-15T01:01:58;100798.66;;;10.30;49.08
17649;BME280;8943;51.110;-4.158;2024-01-15T01:04:41;100809.31;;;10.30;48.78
17649;BME280;8943;51.110;-4.158;2024-01-15T01:07:31;100807.59;;;10.29;48.82
17649;BME280;8943;51.110;-4.158;2024-01-15T01:10:30;100796.50;;;10.22;48.71
17649;BME280;8943;51.110;-4.158;2024-01-15T01:15:50;100798.50;;;10.19;49.07
17649;BME280;8943;51.110;-4.158;2024-01-15T01:50:08;100795.31;;;10.14;48.92
17649;BME280;8943;51.110;-4.158;2024-01-15T01:52:38;100794.34;;;10.15;48.88
17649;BME280;8943;51.110;-4.158;2024-01-15T02:03:16;100800.31;;;10.18;48.66
17649;BME280;8943;51.110;-4.158;2024-01-15T02:05:52;100797.53;;;10.20;48.73
17649;BME280;8943;51.110;-4.158;2024-01-15T02:08:31;100790.53;;;10.19;48.52
17649;BME280;8943;51.110;-4.158;2024-01-15T02:11:30;100787.97;;;10.17;49.23
17649;BME280;8943;51.110;-4.158;2024-01-15T02:14:04;100782.66;;;10.17;48.95
17649;BME280;8943;51.110;-4.158;2024-01-15T02:17:42;100784.66;;;10.14;48.84
17649;BME280;8943;51.110;-4.158;2024-01-15T02:21:17;100788.50;;;10.10;49.00
17649;BME280;8943;51.110;-4.158;2024-01-15T02:29:31;100806.09;;;10.12;49.07
17649;BME280;8943;51.110;-4.158;2024-01-15T02:32:05;100812.06;;;10.16;48.70
17649;BME280;8943;51.110;-4.158;2024-01-15T02:34:57;100810.25;;;10.16;48.99
17649;BME280;8943;51.110;-4.158;2024-01-15T02:37:28;100812.06;;;10.16;49.17
17649;BME280;8943;51.110;-4.158;2024-01-15T02:40:20;100803.84;;;10.19;48.96
17649;BME280;8943;51.110;-4.158;2024-01-15T02:43:15;100814.41;;;10.20;48.72
17649;BME280;8943;51.110;-4.158;2024-01-15T02:48:47;100816.19;;;10.20;48.96
17649;BME280;8943;51.110;-4.158;2024-01-15T02:51:39;100820.56;;;10.21;49.01
17649;BME280;8943;51.110;-4.158;2024-01-15T02:54:09;100822.16;;;10.23;48.88
17649;BME280;8943;51.110;-4.158;2024-01-15T03:02:51;100809.59;;;10.13;48.89
17649;BME280;8943;51.110;-4.158;2024-01-15T03:05:27;100810.56;;;10.12;49.32
17649;BME280;8943;51.110;-4.158;2024-01-15T03:07:59;100805.25;;;10.12;48.86
17649;BME280;8943;51.110;-4.158;2024-01-15T03:28:46;100800.56;;;10.02;48.65
17649;BME280;8943;51.110;-4.158;2024-01-15T03:31:17;100796.09;;;10.03;48.52
17649;BME280;8943;51.110;-4.158;2024-01-15T03:33:50;100803.94;;;10.04;48.84
17649;BME280;8943;51.110;-4.158;2024-01-15T03:36:32;100793.09;;;10.07;48.49
17649;BME280;8943;51.110;-4.158;2024-01-15T03:39:07;100796.50;;;10.10;48.35
17649;BME280;8943;51.110;-4.158;2024-01-15T03:41:36;100795.44;;;10.12;48.45
17649;BME280;8943;51.110;-4.158;2024-01-15T03:44:12;100793.44;;;10.16;48.58
17649;BME280;8943;51.110;-4.158;2024-01-15T03:46:46;100795.84;;;10.19;48.04
17649;BME280;8943;51.110;-4.158;2024-01-15T03:49:47;100797.53;;;10.20;48.10
17649;BME280;8943;51.110;-4.158;2024-01-15T03:52:19;100796.41;;;10.24;48.35
17649;BME280;8943;51.110;-4.158;2024-01-15T03:54:49;100793.53;;;10.27;48.02
17649;BME280;8943;51.110;-4.158;2024-01-15T03:57:18;100801.53;;;10.27;48.17
17649;BME280;8943;51.110;-4.158;2024-01-15T04:03:31;100786.91;;;10.20;48.19
17649;BME280;8943;51.110;-4.158;2024-01-15T04:06:17;100787.00;;;10.18;48.35
17649;BME280;8943;51.110;-4.158;2024-01-15T04:09:06;100783.72;;;10.15;48.51
17649;BME280;8943;51.110;-4.158;2024-01-15T04:15:35;100782.78;;;10.16;48.42
17649;BME280;8943;51.110;-4.158;2024-01-15T04:21:50;100778.63;;;10.12;48.25
17649;BME280;8943;51.110;-4.158;2024-01-15T04:24:58;100775.97;;;10.12;48.73
17649;BME280;8943;51.110;-4.158;2024-01-15T04:27:57;100775.97;;;10.12;48.25
17649;BME280;8943;51.110;-4.158;2024-01-15T04:31:24;100768.19;;;10.09;48.42
17649;BME280;8943;51.110;-4.158;2024-01-15T04:34:22;100772.66;;;9.95;48.17
17649;BME280;8943;51.110;-4.158;2024-01-15T04:37:44;100775.00;;;9.87;48.41
17649;BME280;8943;51.110;-4.158;2024-01-15T04:42:49;100774.34;;;9.71;48.46
17649;BME280;8943;51.110;-4.158;2024-01-15T04:45:19;100770.31;;;9.65;48.64
17649;BME280;8943;51.110;-4.158;2024-01-15T04:54:39;100774.88;;;9.50;48.83
17649;BME280;8943;51.110;-4.158;2024-01-15T04:57:09;100777.34;;;9.53;48.81
17649;BME280;8943;51.110;-4.158;2024-01-15T04:59:41;100779.81;;;9.57;48.74
17649;BME280;8943;51.110;-4.158;2024-01-15T05:02:38;100780.53;;;9.59;48.91
17649;BME280;8943;51.110;-4.158;2024-01-15T05:05:09;100766.06;;;9.63;49.08
17649;BME280;8943;51.110;-4.158;2024-01-15T05:07:39;100764.91;;;9.67;48.50
17649;BME280;8943;51.110;-4.158;2024-01-15T05:10:27;100770.75;;;9.72;48.84
17649;BME280;8943;51.110;-4.158;2024-01-15T05:12:56;100774.16;;;9.74;48.17
17649;BME280;8943;51.110;-4.158;2024-01-15T05:15:28;100780.44;;;9.73;48.56
17649;BME280;8943;51.110;-4.158;2024-01-15T05:23:54;100766.91;;;9.63;48.29
17649;BME280;8943;51.110;-4.158;2024-01-15T05:30:09;100770.53;;;9.62;48.44
17649;BME280;8943;51.110;-4.158;2024-01-15T05:32:49;100770.75;;;9.59;48.47
17649;BME280;8943;51.110;-4.158;2024-01-15T05:35:27;100779.81;;;9.57;47.73
17649;BME280;8943;51.110;-4.158;2024-01-15T05:40:49;100775.63;;;9.40;47.87
17649;BME280;8943;51.110;-4.158;2024-01-15T05:54:18;100789.22;;;8.95;47.94
17649;BME280;8943;51.110;-4.158;2024-01-15T06:00:53;100783.28;;;8.77;47.75
17649;BME280;8943;51.110;-4.158;2024-01-15T06:03:23;100780.75;;;8.76;47.62
17649;BME280;8943;51.110;-4.158;2024-01-15T06:05:53;100772.78;;;8.76;47.69
17649;BME280;8943;51.110;-4.158;2024-01-15T06:08:25;100773.50;;;8.78;47.83
17649;BME280;8943;51.110;-4.158;2024-01-15T06:17:20;100786.97;;;8.89;48.14
17649;BME280;8943;51.110;-4.158;2024-01-15T06:19:54;100784.00;;;8.94;47.96
17649;BME280;8943;51.110;-4.158;2024-01-15T06:22:27;100784.56;;;8.99;47.88
17649;BME280;8943;51.110;-4.158;2024-01-15T06:25:24;100780.63;;;9.05;47.58
17649;BME280;8943;51.110;-4.158;2024-01-15T06:28:22;100785.72;;;9.08;47.88
17649;BME280;8943;51.110;-4.158;2024-01-15T06:31:08;100780.22;;;9.11;47.67
17649;BME280;8943;51.110;-4.158;2024-01-15T06:33:46;100777.44;;;9.12;47.77
17649;BME280;8943;51.110;-4.158;2024-01-15T06:36:25;100771.09;;;9.15;47.41
17649;BME280;8943;51.110;-4.158;2024-01-15T06:39:03;100777.38;;;9.14;47.56
17649;BME280;8943;51.110;-4.158;2024-01-15T06:41:33;100783.66;;;9.13;47.34
17649;BME280;8943;51.110;-4.158;2024-01-15T06:44:09;100782.88;;;9.11;47.26
17649;BME280;8943;51.110;-4.158;2024-01-15T06:46:53;100778.72;;;9.07;47.24
17649;BME280;8943;51.110;-4.158;2024-01-15T06:50:14;100779.78;;;9.04;47.20
17649;BME280;8943;51.110;-4.158;2024-01-15T06:52:49;100775.50;;;9.01;47.48
17649;BME280;8943;51.110;-4.158;2024-01-15T06:55:20;100786.38;;;8.98;47.71
17649;BME280;8943;51.110;-4.158;2024-01-15T06:58:07;100789.03;;;8.98;47.50
17649;BME280;8943;51.110;-4.158;2024-01-15T07:00:56;100785.28;;;9.01;47.64
17649;BME280;8943;51.110;-4.158;2024-01-15T07:04:11;100788.72;;;9.03;47.81
17649;BME280;8943;51.110;-4.158;2024-01-15T07:11:22;100794.28;;;9.13;47.62
17649;BME280;8943;51.110;-4.158;2024-01-15T07:13:54;100792.34;;;9.15;47.98
17649;BME280;8943;51.110;-4.158;2024-01-15T08:10:24;100838.19;;;8.91;49.28
17649;BME280;8943;51.110;-4.158;2024-01-15T09:19:31;100868.97;;;8.81;50.40
17649;BME280;8943;51.110;-4.158;2024-01-15T09:22:11;100870.47;;;8.85;50.40
17649;BME280;8943;51.110;-4.158;2024-01-15T09:25:00;100868.56;;;8.87;50.32
17649;BME280;8943;51.110;-4.158;2024-01-15T09:28:01;100874.34;;;8.94;50.01
17649;BME280;8943;51.110;-4.158;2024-01-15T09:56:01;100899.38;;;9.04;50.03
17649;BME280;8943;51.110;-4.158;2024-01-15T10:44:30;100954.47;;;9.29;45.04
17649;BME280;8943;51.110;-4.158;2024-01-15T10:59:20;100967.22;;;9.51;43.69
17649;BME280;8943;51.110;-4.158;2024-01-15T11:05:28;100959.91;;;9.54;42.96
17649;BME280;8943;51.110;-4.158;2024-01-15T12:48:59;100974.22;;;10.46;38.00
17649;BME280;8943;51.110;-4.158;2024-01-15T12:54:39;100982.75;;;10.51;38.23
17649;BME280;8943;51.110;-4.158;2024-01-15T13:02:52;100968.88;;;10.58;37.54
17649;BME280;8943;51.110;-4.158;2024-01-15T13:05:41;100952.91;;;10.71;37.79
17649;BME280;8943;51.110;-4.158;2024-01-15T13:11:04;100963.97;;;10.91;37.82
17649;BME280;8943;51.110;-4.158;2024-01-15T13:13:40;100950.31;;;10.95;37.45
17649;BME280;8943;51.110;-4.158;2024-01-15T13:25:46;100944.97;;;10.82;37.38
17649;BME280;8943;51.110;-4.158;2024-01-15T13:28:21;100949.25;;;10.85;36.82
17649;BME280;8943;51.110;-4.158;2024-01-15T13:31:06;100950.75;;;10.89;36.73
17649;BME280;8943;51.110;-4.158;2024-01-15T13:33:36;100947.13;;;10.90;35.92
17649;BME280;8943;51.110;-4.158;2024-01-15T13:50:20;100930.59;;;10.85;34.82
17649;BME280;8943;51.110;-4.158;2024-01-15T13:53:08;100934.50;;;10.92;34.46
17649;BME280;8943;51.110;-4.158;2024-01-15T13:55:59;100935.78;;;10.99;33.88
17649;BME280;8943;51.110;-4.158;2024-01-15T14:04:35;100923.97;;;11.51;34.29
17649;BME280;8943;51.110;-4.158;2024-01-15T14:07:08;100932.09;;;11.74;34.13
17649;BME280;8943;51.110;-4.158;2024-01-15T14:18:21;100928.69;;;11.72;32.46
17649;BME280;8943;51.110;-4.158;2024-01-15T14:23:57;100916.84;;;11.52;32.19
17649;BME280;8943;51.110;-4.158;2024-01-15T15:00:34;100913.56;;;13.42;33.45
17649;BME280;8943;51.110;-4.158;2024-01-15T15:16:51;100917.66;;;16.10;29.45
17649;BME280;8943;51.110;-4.158;2024-01-15T15:19:36;100927.41;;;16.31;29.18
17649;BME280;8943;51.110;-4.158;2024-01-15T15:22:08;100928.75;;;16.44;28.73
17649;BME280;8943;51.110;-4.158;2024-01-15T15:24:51;100935.00;;;16.45;28.21
17649;BME280;8943;51.110;-4.158;2024-01-15T15:27:50;100933.06;;;16.28;27.80
17649;BME280;8943;51.110;-4.158;2024-01-15T15:30:32;100926.88;;;16.08;27.90
17649;BME280;8943;51.110;-4.158;2024-01-15T15:33:26;100935.63;;;16.00;28.34
17649;BME280;8943;51.110;-4.158;2024-01-15T15:35:59;100929.84;;;15.95;28.33
17649;BME280;8943;51.110;-4.158;2024-01-15T15:38:32;100936.06;;;15.76;27.70
17649;BME280;8943;51.110;-4.158;2024-01-15T15:44:40;100922.00;;;14.11;27.77
17649;BME280;8943;51.110;-4.158;2024-01-15T15:47:15;100922.31;;;13.44;28.61
17649;BME280;8943;51.110;-4.158;2024-01-15T15:49:47;100925.28;;;12.85;28.89
17649;BME280;8943;51.110;-4.158;2024-01-15T15:52:17;100929.16;;;12.36;29.87
17649;BME280;8943;51.110;-4.158;2024-01-15T15:54:47;100939.53;;;12.05;30.17
17649;BME280;8943;51.110;-4.158;2024-01-15T15:57:16;100935.28;;;11.79;30.78
17649;BME280;8943;51.110;-4.158;2024-01-15T15:59:46;100935.16;;;11.56;30.80
17649;BME280;8943;51.110;-4.158;2024-01-15T16:02:14;100931.81;;;11.42;31.29
17649;BME280;8943;51.110;-4.158;2024-01-15T16:04:43;100931.03;;;11.28;31.80
17649;BME280;8943;51.110;-4.158;2024-01-15T16:07:17;100934.25;;;11.21;31.96
17649;BME280;8943;51.110;-4.158;2024-01-15T16:09:47;100934.56;;;11.16;32.29
17649;BME280;8943;51.110;-4.158;2024-01-15T16:12:18;100935.13;;;11.08;32.29
17649;BME280;8943;51.110;-4.158;2024-01-15T16:15:17;100928.44;;;11.03;32.64
17649;BME280;8943;51.110;-4.158;2024-01-15T16:17:47;100931.97;;;11.03;32.80
17649;BME280;8943;51.110;-4.158;2024-01-15T16:20:37;100939.00;;;11.04;33.30
17649;BME280;8943;51.110;-4.158;2024-01-15T16:23:27;100939.63;;;11.08;33.36
17649;BME280;8943;51.110;-4.158;2024-01-15T16:26:17;100942.50;;;11.05;33.10
17649;BME280;8943;51.110;-4.158;2024-01-15T16:29:52;100949.13;;;10.99;33.50
17649;BME280;8943;51.110;-4.158;2024-01-15T16:32:51;100944.78;;;10.86;33.48
17649;BME280;8943;51.110;-4.158;2024-01-15T16:35:45;100942.75;;;10.76;33.71
17649;BME280;8943;51.110;-4.158;2024-01-15T16:38:32;100942.75;;;10.64;33.73
17649;BME280;8943;51.110;-4.158;2024-01-15T16:41:31;100946.50;;;10.48;34.28
17649;BME280;8943;51.110;-4.158;2024-01-15T16:44:15;100939.81;;;10.30;34.32
17649;BME280;8943;51.110;-4.158;2024-01-15T16:46:54;100958.19;;;10.20;34.64
17649;BME280;8943;51.110;-4.158;2024-01-15T16:49:34;100952.63;;;10.11;34.65
17649;BME280;8943;51.110;-4.158;2024-01-15T16:52:30;100958.34;;;10.04;34.78
17649;BME280;8943;51.110;-4.158;2024-01-15T16:55:07;100961.25;;;10.01;34.68
17649;BME280;8943;51.110;-4.158;2024-01-15T16:58:05;100961.75;;;9.94;35.13
17649;BME280;8943;51.110;-4.158;2024-01-15T17:00:53;100962.16;;;9.88;35.27
17649;BME280;8943;51.110;-4.158;2024-01-15T17:03:36;100961.91;;;9.78;35.38
17649;BME280;8943;51.110;-4.158;2024-01-15T17:06:21;100961.22;;;9.62;35.80
17649;BME280;8943;51.110;-4.158;2024-01-15T17:09:17;100963.72;;;9.50;35.83
17649;BME280;8943;51.110;-4.158;2024-01-15T17:11:50;100959.22;;;9.38;36.00
17649;BME280;8943;51.110;-4.158;2024-01-15T17:14:49;100964.94;;;9.32;36.18
17649;BME280;8943;51.110;-4.158;2024-01-15T17:17:20;100968.91;;;9.25;36.23
17649;BME280;8943;51.110;-4.158;2024-01-15T17:19:56;100981.66;;;9.20;35.82
17649;BME280;8943;51.110;-4.158;2024-01-15T17:22:40;100978.63;;;9.12;36.37
17649;BME280;8943;51.110;-4.158;2024-01-15T17:25:23;100979.00;;;9.06;36.40
17649;BME280;8943;51.110;-4.158;2024-01-15T17:27:52;100976.75;;;8.99;36.39
17649;BME280;8943;51.110;-4.158;2024-01-15T17:30:22;100975.13;;;8.97;36.51
17649;BME280;8943;51.110;-4.158;2024-01-15T17:32:54;100969.34;;;8.90;36.85
17649;BME280;8943;51.110;-4.158;2024-01-15T17:35:51;100983.09;;;8.83;37.24
17649;BME280;8943;51.110;-4.158;2024-01-15T17:38:28;100983.66;;;8.73;37.41
17649;BME280;8943;51.110;-4.158;2024-01-15T17:41:01;100988.22;;;8.71;37.50
17649;BME280;8943;51.110;-4.158;2024-01-15T17:43:31;100984.16;;;8.66;37.61
17649;BME280;8943;51.110;-4.158;2024-01-15T17:46:24;100980.53;;;8.67;37.75
17649;BME280;8943;51.110;-4.158;2024-01-15T17:48:57;100985.84;;;8.67;37.70
17649;BME280;8943;51.110;-4.158;2024-01-15T17:51:42;100989.63;;;8.63;38.08
17649;BME280;8943;51.110;-4.158;2024-01-15T17:54:13;100996.88;;;8.61;38.57
17649;BME280;8943;51.110;-4.158;2024-01-15T17:56:45;100994.59;;;8.55;38.30
17649;BME280;8943;51.110;-4.158;2024-01-15T17:59:21;101001.78;;;8.52;38.50
17649;BME280;8943;51.110;-4.158;2024-01-15T18:02:01;101000.06;;;8.51;38.81
17649;BME280;8943;51.110;-4.158;2024-01-15T18:04:32;101000.25;;;8.48;39.02
17649;BME280;8943;51.110;-4.158;2024-01-15T18:07:01;101000.63;;;8.42;39.67
17649;BME280;8943;51.110;-4.158;2024-01-15T18:09:31;100995.81;;;8.33;39.46
17649;BME280;8943;51.110;-4.158;2024-01-15T18:12:07;100989.88;;;8.30;39.62
17649;BME280;8943;51.110;-4.158;2024-01-15T18:14:55;100994.28;;;8.29;39.73
17649;BME280;8943;51.110;-4.158;2024-01-15T18:17:43;101005.69;;;8.31;39.90
17649;BME280;8943;51.110;-4.158;2024-01-15T18:20:16;101011.75;;;8.33;39.92
17649;BME280;8943;51.110;-4.158;2024-01-15T18:23:22;101014.28;;;8.36;40.42
17649;BME280;8943;51.110;-4.158;2024-01-15T18:26:31;101009.63;;;8.40;40.42
17649;BME280;8943;51.110;-4.158;2024-01-15T18:29:18;101005.75;;;8.45;40.24
17649;BME280;8943;51.110;-4.158;2024-01-15T18:32:14;101009.00;;;8.50;40.20
17649;BME280;8943;51.110;-4.158;2024-01-15T18:35:28;101010.41;;;8.56;40.07
17649;BME280;8943;51.110;-4.158;2024-01-15T18:38:25;101007.75;;;8.56;39.98
17649;BME280;8943;51.110;-4.158;2024-01-15T18:41:02;101010.25;;;8.59;40.16
17649;BME280;8943;51.110;-4.158;2024-01-15T18:43:33;101002.28;;;8.59;40.23
17649;BME280;8943;51.110;-4.158;2024-01-15T18:46:31;100996.75;;;8.62;40.51
17649;BME280;8943;51.110;-4.158;2024-01-15T18:49:16;101003.59;;;8.66;40.31
17649;BME280;8943;51.110;-4.158;2024-01-15T18:52:16;101000.19;;;8.64;40.36
17649;BME280;8943;51.110;-4.158;2024-01-15T18:54:57;100994.22;;;8.61;40.65
17649;BME280;8943;51.110;-4.158;2024-01-15T18:57:49;100992.00;;;8.53;40.92
17649;BME280;8943;51.110;-4.158;2024-01-15T19:00:23;100989.63;;;8.48;41.18
17649;BME280;8943;51.110;-4.158;2024-01-15T19:03:08;100984.53;;;8.45;41.27
17649;BME280;8943;51.110;-4.158;2024-01-15T19:05:52;100988.31;;;8.41;41.59
17649;BME280;8943;51.110;-4.158;2024-01-15T19:11:59;100984.97;;;8.38;41.53
17649;BME280;8943;51.110;-4.158;2024-01-15T19:14:30;100990.19;;;8.39;41.67
17649;BME280;8943;51.110;-4.158;2024-01-15T19:17:00;100993.88;;;8.37;42.11
17649;BME280;8943;51.110;-4.158;2024-01-15T19:19:39;100992.22;;;8.34;41.80
17649;BME280;8943;51.110;-4.158;2024-01-15T19:22:10;100991.38;;;8.34;41.87
17649;BME280;8943;51.110;-4.158;2024-01-15T19:24:40;100989.66;;;8.33;42.04
17649;BME280;8943;51.110;-4.158;2024-01-15T19:27:33;100994.13;;;8.32;42.45
17649;BME280;8943;51.110;-4.158;2024-01-15T19:30:18;100993.16;;;8.33;42.49
17649;BME280;8943;51.110;-4.158;2024-01-15T19:32:55;100996.69;;;8.34;42.58
17649;BME280;8943;51.110;-4.158;2024-01-15T19:35:32;101001.00;;;8.36;42.52
17649;BME280;8943;51.110;-4.158;2024-01-15T19:38:26;101008.00;;;8.37;42.30
17649;BME280;8943;51.110;-4.158;2024-01-15T19:40:57;101001.69;;;8.40;42.50
17649;BME280;8943;51.110;-4.158;2024-01-15T19:43:54;100999.09;;;8.38;42.73
17649;BME280;8943;51.110;-4.158;2024-01-15T19:46:47;101002.53;;;8.40;42.51
17649;BME280;8943;51.110;-4.158;2024-01-15T19:49:44;101008.31;;;8.47;42.79
17649;BME280;8943;51.110;-4.158;2024-01-15T19:52:40;101009.06;;;8.49;42.68
17649;BME280;8943;51.110;-4.158;2024-01-15T19:55:40;101010.88;;;8.48;42.88
17649;BME280;8943;51.110;-4.158;2024-01-15T19:58:37;101010.88;;;8.48;42.91
17649;BME280;8943;51.110;-4.158;2024-01-15T20:01:27;101016.28;;;8.47;43.23
17649;BME280;8943;51.110;-4.158;2024-01-15T20:04:27;101009.06;;;8.49;42.88
17649;BME280;8943;51.110;-4.158;2024-01-15T20:07:51;101014.31;;;8.50;43.40
17649;BME280;8943;51.110;-4.158;2024-01-15T20:11:04;101013.63;;;8.47;43.25
17649;BME280;8943;51.110;-4.158;2024-01-15T20:13:37;101020.56;;;8.49;43.36
17649;BME280;8943;51.110;-4.158;2024-01-15T20:16:42;101020.56;;;8.49;43.48
17649;BME280;8943;51.110;-4.158;2024-01-15T20:19:26;101023.03;;;8.52;43.48
17649;BME280;8943;51.110;-4.158;2024-01-15T20:22:22;101028.34;;;8.52;43.55
17649;BME280;8943;51.110;-4.158;2024-01-15T20:24:53;101021.16;;;8.55;43.36
17649;BME280;8943;51.110;-4.158;2024-01-15T20:27:26;101023.69;;;8.56;43.61
17649;BME280;8943;51.110;-4.158;2024-01-15T20:29:59;101018.56;;;8.53;43.42
17649;BME280;8943;51.110;-4.158;2024-01-15T20:39:30;101028.25;;;8.54;44.02
17649;BME280;8943;51.110;-4.158;2024-01-15T20:42:00;101020.19;;;8.56;43.96
17649;BME280;8943;51.110;-4.158;2024-01-15T20:44:33;101014.78;;;8.57;43.89
17649;BME280;8943;51.110;-4.158;2024-01-15T20:47:05;101025.41;;;8.57;43.96
17649;BME280;8943;51.110;-4.158;2024-01-15T20:49:34;101025.50;;;8.56;43.98
17649;BME280;8943;51.110;-4.158;2024-01-15T20:52:08;101027.94;;;8.59;44.13
17649;BME280;8943;51.110;-4.158;2024-01-15T20:54:51;101010.25;;;8.59;44.04
17649;BME280;8943;51.110;-4.158;2024-01-15T20:57:25;101011.09;;;8.60;43.98
17649;BME280;8943;51.110;-4.158;2024-01-15T21:00:14;101009.38;;;8.59;44.17
17649;BME280;8943;51.110;-4.158;2024-01-15T21:02:45;101013.94;;;8.57;44.35
17649;BME280;8943;51.110;-4.158;2024-01-15T21:05:17;101006.53;;;8.62;44.37
17649;BME280;8943;51.110;-4.158;2024-01-15T21:07:53;100995.72;;;8.65;44.12
17649;BME280;8943;51.110;-4.158;2024-01-15T21:10:24;101003.59;;;8.66;44.25
17649;BME280;8943;51.110;-4.158;2024-01-15T21:12:57;101009.09;;;8.63;44.48
17649;BME280;8943;51.110;-4.158;2024-01-15T21:15:28;100998.56;;;8.62;44.23
17649;BME280;8943;51.110;-4.158;2024-01-15T21:17:57;100997.59;;;8.63;44.40
17649;BME280;8943;51.110;-4.158;2024-01-15T21:20:27;100999.34;;;8.64;44.45
17649;BME280;8943;51.110;-4.158;2024-01-15T21:23:02;101004.44;;;8.67;44.49
17649;BME280;8943;51.110;-4.158;2024-01-15T21:25:33;101004.16;;;8.71;44.62
17649;BME280;8943;51.110;-4.158;2024-01-15T21:28:03;101002.38;;;8.72;44.59
17649;BME280;8943;51.110;-4.158;2024-01-15T21:30:34;101005.59;;;8.77;44.46
17649;BME280;8943;51.110;-4.158;2024-01-15T21:33:04;101001.13;;;8.77;44.41
17649;BME280;8943;51.110;-4.158;2024-01-15T21:35:34;100997.63;;;8.77;44.32
17649;BME280;8943;51.110;-4.158;2024-01-15T21:38:05;100998.41;;;8.79;44.59
17649;BME280;8943;51.110;-4.158;2024-01-15T21:40:36;100988.81;;;8.76;44.92
17649;BME280;8943;51.110;-4.158;2024-01-15T21:43:05;100987.78;;;8.79;44.49
17649;BME280;8943;51.110;-4.158;2024-01-15T21:45:34;100990.22;;;8.82;44.60
17649;BME280;8943;51.110;-4.158;2024-01-15T21:48:03;100989.88;;;8.88;44.58
17649;BME280;8943;51.110;-4.158;2024-01-15T21:50:36;100992.31;;;8.91;44.52
17649;BME280;8943;51.110;-4.158;2024-01-15T21:53:06;100986.16;;;8.91;44.54
17649;BME280;8943;51.110;-4.158;2024-01-15T21:55:39;100993.09;;;8.93;44.31
17649;BME280;8943;51.110;-4.158;2024-01-15T21:58:08;100984.34;;;8.91;44.46
17649;BME280;8943;51.110;-4.158;2024-01-15T22:00:37;100985.28;;;8.90;44.53
17649;BME280;8943;51.110;-4.158;2024-01-15T22:03:06;100988.13;;;8.87;44.70
17649;BME280;8943;51.110;-4.158;2024-01-15T22:05:35;100983.03;;;8.84;44.69
17649;BME280;8943;51.110;-4.158;2024-01-15T22:08:05;100983.94;;;8.83;44.63
17649;BME280;8943;51.110;-4.158;2024-01-15T22:10:34;100983.94;;;8.83;44.66
17649;BME280;8943;51.110;-4.158;2024-01-15T22:13:10;100974.38;;;8.81;44.54
17649;BME280;8943;51.110;-4.158;2024-01-15T22:15:39;100983.19;;;8.81;44.87
17649;BME280;8943;51.110;-4.158;2024-01-15T22:18:24;100979.59;;;8.82;44.63
17649;BME280;8943;51.110;-4.158;2024-01-15T22:20:54;100980.53;;;8.81;44.76
17649;BME280;8943;51.110;-4.158;2024-01-15T22:23:24;100979.69;;;8.81;44.64
17649;BME280;8943;51.110;-4.158;2024-01-15T22:25:53;100978.84;;;8.80;44.72
17649;BME280;8943;51.110;-4.158;2024-01-15T22:28:25;100974.50;;;8.79;44.81
17649;BME280;8943;51.110;-4.158;2024-01-15T22:30:56;100972.69;;;8.80;44.34
17649;BME280;8943;51.110;-4.158;2024-01-15T22:33:26;100974.50;;;8.79;44.70
17649;BME280;8943;51.110;-4.158;2024-01-15T22:35:56;100977.03;;;8.81;44.43
17649;BME280;8943;51.110;-4.158;2024-01-15T22:38:25;100978.84;;;8.80;44.71
17649;BME280;8943;51.110;-4.158;2024-01-15T22:40:54;100976.38;;;8.77;44.69
17649;BME280;8943;51.110;-4.158;2024-01-15T22:43:28;100976.38;;;8.77;44.62
17649;BME280;8943;51.110;-4.158;2024-01-15T22:46:01;100984.34;;;8.77;44.53
17649;BME280;8943;51.110;-4.158;2024-01-15T22:48:34;100991.56;;;8.75;44.53
17649;BME280;8943;51.110;-4.158;2024-01-15T22:51:05;100987.38;;;8.71;44.30
17649;BME280;8943;51.110;-4.158;2024-01-15T22:53:38;100977.03;;;8.66;44.41
17649;BME280;8943;51.110;-4.158;2024-01-15T22:56:21;100971.31;;;8.58;44.33
17649;BME280;8943;51.110;-4.158;2024-01-15T22:58:54;100972.66;;;8.51;44.30
17649;BME280;8943;51.110;-4.158;2024-01-15T23:01:31;100973.13;;;8.43;44.24
17649;BME280;8943;51.110;-4.158;2024-01-15T23:04:05;100969.28;;;8.33;44.41
17649;BME280;8943;51.110;-4.158;2024-01-15T23:06:39;100964.53;;;8.24;44.35
17649;BME280;8943;51.110;-4.158;2024-01-15T23:09:09;100960.91;;;8.11;44.30
17649;BME280;8943;51.110;-4.158;2024-01-15T23:11:45;100964.09;;;8.02;44.35
17649;BME280;8943;51.110;-4.158;2024-01-15T23:14:22;100969.00;;;7.93;44.57
17649;BME280;8943;51.110;-4.158;2024-01-15T23:17:05;100971.22;;;7.85;44.48
17649;BME280;8943;51.110;-4.158;2024-01-15T23:19:58;100976.16;;;7.77;44.48
17649;BME280;8943;51.110;-4.158;2024-01-15T23:22:58;100969.81;;;7.64;44.64
17649;BME280;8943;51.110;-4.158;2024-01-15T23:28:33;100962.75;;;7.48;44.54
17649;BME280;8943;51.110;-4.158;2024-01-15T23:31:39;100959.75;;;7.39;44.70
17649;BME280;8943;51.110;-4.158;2024-01-15T23:34:35;100968.81;;;7.35;44.66
17649;BME280;8943;51.110;-4.158;2024-01-15T23:37:12;100957.88;;;7.25;45.40
17649;BME280;8943;51.110;-4.158;2024-01-15T23:40:12;100967.13;;;7.18;44.67
17649;BME280;8943;51.110;-4.158;2024-01-15T23:43:15;100954.53;;;7.06;44.34
17649;BME280;8943;51.110;-4.158;2024-01-15T23:45:58;100955.66;;;7.02;44.41
17649;BME280;8943;51.110;-4.158;2024-01-15T23:48:49;100965.22;;;6.88;44.41
17649;BME280;8943;51.110;-4.158;2024-01-15T23:51:24;100961.41;;;6.77;44.93
17649;BME280;8943;51.110;-4.158;2024-01-15T23:54:05;100954.22;;;6.63;45.02
17649;BME280;8943;51.110;-4.158;2024-01-15T23:56:49;100962.56;;;6.55;45.17
17649;BME280;8943;51.110;-4.158;2024-01-15T23:59:26;100965.63;;;6.48;45.27
